sensor_id;sensor_type;location;lat;lon;timestamp;pressure;altitude;pressure_sealevel;temperature;humidity
60244;BME280;46106;51.468;5.814;2022-08-19T00:00:21;100963.56;;;18.50;100.00
60244;BME280;46106;51.468;5.814;2022-08-19T00:02:46;100959.22;;;18.64;100.00
60244;BME280;46106;51.468;5.814;2022-08-19T00:05:13;100958.53;;;18.62;100.00
60244;BME280;46106;51.468;5.814;2022-08-19T00:07:39;100958.00;;;18.50;100.00
60244;BME280;46106;51.468;5.814;2022-08-19T00:10:07;100960.94;;;18.40;100.00
60244;BME280;46106;51.468;5.814;2022-08-19T00:12:33;100969.78;;;18.44;100.00
60244;BME280;46106;51.468;5.814;2022-08-19T00:14:59;100969.94;;;18.42;100.00
60244;BME280;46106;51.468;5.814;2022-08-19T00:17:26;100967.81;;;18.28;100.00
60244;BME280;46106;51.468;5.814;2022-08-19T00:19:51;100961.94;;;18.23;100.00
60244;BME280;46106;51.468;5.814;2022-08-19T00:22:17;100965.50;;;18.07;100.00
60244;BME280;46106;51.468;5.814;2022-08-19T00:24:44;100968.25;;;17.98;100.00
60244;BME280;46106;51.468;5.814;2022-08-19T00:27:11;100969.44;;;17.88;100.00
60244;BME280;46106;51.468;5.814;2022-08-19T00:29:37;100986.63;;;17.99;100.00
60244;BME280;46106;51.468;5.814;2022-08-19T00:32:06;100978.50;;;18.06;100.00
60244;BME280;46106;51.468;5.814;2022-08-19T00:34:32;100974.00;;;18.05;100.00
60244;BME280;46106;51.468;5.814;2022-08-19T00:36:57;100967.25;;;18.08;100.00
60244;BME280;46106;51.468;5.814;2022-08-19T00:39:23;100974.41;;;18.18;100.00
60244;BME280;46106;51.468;5.814;2022-08-19T00:41:50;100966.22;;;18.09;100.00
60244;BME280;46106;51.468;5.814;2022-08-19T00:44:25;100965.50;;;18.07;100.00
60244;BME280;46106;51.468;5.814;2022-08-19T00:46:54;100961.22;;;18.12;100.00
60244;BME280;46106;51.468;5.814;2022-08-19T00:49:25;100971.19;;;17.97;100.00
60244;BME280;46106;51.468;5.814;2022-08-19T00:51:59;100965.16;;;18.02;100.00
60244;BME280;46106;51.468;5.814;2022-08-19T00:54:26;100972.94;;;17.98;100.00
60244;BME280;46106;51.468;5.814;2022-08-19T00:56:52;100959.41;;;17.95;100.00
60244;BME280;46106;51.468;5.814;2022-08-19T00:59:20;100986.59;;;17.91;100.00
60244;BME280;46106;51.468;5.814;2022-08-19T01:01:46;100980.53;;;17.61;100.00
60244;BME280;46106;51.468;5.814;2022-08-19T01:04:12;100983.47;;;17.34;100.00
60244;BME280;46106;51.468;5.814;2022-08-19T01:06:39;100982.38;;;17.26;100.00
60244;BME280;46106;51.468;5.814;2022-08-19T01:09:07;100981.75;;;17.15;100.00
60244;BME280;46106;51.468;5.814;2022-08-19T01:11:37;100978.72;;;17.00;100.00
60244;BME280;46106;51.468;5.814;2022-08-19T01:14:05;100984.63;;;17.05;100.00
60244;BME280;46106;51.468;5.814;2022-08-19T01:16:32;100981.22;;;17.11;100.00
60244;BME280;46106;51.468;5.814;2022-08-19T01:18:59;100981.44;;;17.18;100.00
60244;BME280;46106;51.468;5.814;2022-08-19T01:21:52;100969.63;;;17.07;100.00
60244;BME280;46106;51.468;5.814;2022-08-19T01:24:21;100979.63;;;17.08;100.00
60244;BME280;46106;51.468;5.814;2022-08-19T01:26:49;100985.06;;;17.18;100.00
60244;BME280;46106;51.468;5.814;2022-08-19T01:29:15;100985.97;;;17.19;100.00
60244;BME280;46106;51.468;5.814;2022-08-19T01:31:42;100988.28;;;17.05;100.00
60244;BME280;46106;51.468;5.814;2022-08-19T01:34:08;100987.56;;;17.03;100.00
60244;BME280;46106;51.468;5.814;2022-08-19T01:36:39;100991.25;;;17.30;100.00
60244;BME280;46106;51.468;5.814;2022-08-19T01:39:10;100985.03;;;17.36;100.00
60244;BME280;46106;51.468;5.814;2022-08-19T01:41:37;100981.63;;;17.42;100.00
60244;BME280;46106;51.468;5.814;2022-08-19T01:44:05;100988.53;;;17.38;100.00
60244;BME280;46106;51.468;5.814;2022-08-19T01:46:31;100978.94;;;17.33;100.00
60244;BME280;46106;51.468;5.814;2022-08-19T01:48:58;100975.06;;;17.17;100.00
60244;BME280;46106;51.468;5.814;2022-08-19T01:51:26;100986.28;;;17.16;100.00
60244;BME280;46106;51.468;5.814;2022-08-19T01:53:53;100984.22;;;17.18;100.00
60244;BME280;46106;51.468;5.814;2022-08-19T01:56:20;100992.50;;;17.18;100.00
60244;BME280;46106;51.468;5.814;2022-08-19T01:58:52;100995.41;;;17.34;100.00
60244;BME280;46106;51.468;5.814;2022-08-19T02:01:19;101006.03;;;17.47;100.00
60244;BME280;46106;51.468;5.814;2022-08-19T02:03:45;101006.94;;;17.30;100.00
60244;BME280;46106;51.468;5.814;2022-08-19T02:06:15;101010.22;;;17.25;100.00
60244;BME280;46106;51.468;5.814;2022-08-19T02:08:43;101014.72;;;17.26;100.00
60244;BME280;46106;51.468;5.814;2022-08-19T02:11:19;101011.69;;;17.37;100.00
60244;BME280;46106;51.468;5.814;2022-08-19T02:13:45;101007.22;;;17.44;100.00
60244;BME280;46106;51.468;5.814;2022-08-19T02:16:16;101014.03;;;17.50;100.00
60244;BME280;46106;51.468;5.814;2022-08-19T02:18:41;101003.28;;;17.47;100.00
60244;BME280;46106;51.468;5.814;2022-08-19T02:21:12;101004.56;;;17.35;100.00
60244;BME280;46106;51.468;5.814;2022-08-19T02:23:44;101001.84;;;17.43;100.00
60244;BME280;46106;51.468;5.814;2022-08-19T02:26:12;101004.81;;;17.41;100.00
60244;BME280;46106;51.468;5.814;2022-08-19T02:28:38;101002.56;;;17.45;100.00
60244;BME280;46106;51.468;5.814;2022-08-19T02:31:13;101007.59;;;17.41;100.00
60244;BME280;46106;51.468;5.814;2022-08-19T02:33:43;101007.16;;;17.36;100.00
60244;BME280;46106;51.468;5.814;2022-08-19T02:36:10;101008.91;;;17.37;100.00
60244;BME280;46106;51.468;5.814;2022-08-19T02:38:38;101005.50;;;17.43;100.00
60244;BME280;46106;51.468;5.814;2022-08-19T02:41:07;101011.84;;;17.36;100.00
60244;BME280;46106;51.468;5.814;2022-08-19T02:43:36;101022.22;;;17.34;100.00
60244;BME280;46106;51.468;5.814;2022-08-19T02:46:15;101022.91;;;17.36;100.00
60244;BME280;46106;51.468;5.814;2022-08-19T02:48:50;101019.06;;;17.29;100.00
60244;BME280;46106;51.468;5.814;2022-08-19T02:51:29;101013.56;;;17.11;100.00
60244;BME280;46106;51.468;5.814;2022-08-19T02:53:56;101008.25;;;17.17;100.00
60244;BME280;46106;51.468;5.814;2022-08-19T02:56:22;101010.50;;;17.14;100.00
60244;BME280;46106;51.468;5.814;2022-08-19T02:58:50;101003.44;;;17.01;100.00
60244;BME280;46106;51.468;5.814;2022-08-19T03:01:27;101004.31;;;17.02;100.00
60244;BME280;46106;51.468;5.814;2022-08-19T03:04:00;101006.47;;;16.90;100.00
60244;BME280;46106;51.468;5.814;2022-08-19T03:06:27;101011.53;;;16.95;100.00
60244;BME280;46106;51.468;5.814;2022-08-19T03:08:53;101007.00;;;16.94;100.00
60244;BME280;46106;51.468;5.814;2022-08-19T03:11:27;101006.13;;;16.75;100.00
60244;BME280;46106;51.468;5.814;2022-08-19T03:13:53;101005.03;;;16.68;100.00
60244;BME280;46106;51.468;5.814;2022-08-19T03:16:25;101012.94;;;16.63;100.00
60244;BME280;46106;51.468;5.814;2022-08-19T03:18:52;101012.50;;;16.76;100.00
60244;BME280;46106;51.468;5.814;2022-08-19T03:21:21;101016.56;;;16.81;100.00
60244;BME280;46106;51.468;5.814;2022-08-19T03:23:47;101022.59;;;16.95;100.00
60244;BME280;46106;51.468;5.814;2022-08-19T03:26:13;101024.81;;;16.91;100.00
60244;BME280;46106;51.468;5.814;2022-08-19T03:28:45;101036.41;;;16.95;100.00
60244;BME280;46106;51.468;5.814;2022-08-19T03:31:16;101033.88;;;17.01;100.00
60244;BME280;46106;51.468;5.814;2022-08-19T03:33:42;101031.13;;;17.01;100.00
60244;BME280;46106;51.468;5.814;2022-08-19T03:36:18;101029.44;;;17.08;100.00
60244;BME280;46106;51.468;5.814;2022-08-19T03:38:47;101022.88;;;17.09;100.00
60244;BME280;46106;51.468;5.814;2022-08-19T03:41:26;101029.22;;;17.02;100.00
60244;BME280;46106;51.468;5.814;2022-08-19T03:43:53;101026.22;;;16.95;100.00
60244;BME280;46106;51.468;5.814;2022-08-19T03:46:23;101025.13;;;16.88;100.00
60244;BME280;46106;51.468;5.814;2022-08-19T03:48:52;101014.13;;;16.96;100.00
60244;BME280;46106;51.468;5.814;2022-08-19T03:51:21;101017.28;;;17.01;100.00
60244;BME280;46106;51.468;5.814;2022-08-19T03:53:48;101018.41;;;16.90;100.00
60244;BME280;46106;51.468;5.814;2022-08-19T03:56:15;101020.75;;;16.85;100.00
60244;BME280;46106;51.468;5.814;2022-08-19T03:58:41;101020.53;;;16.97;100.00
60244;BME280;46106;51.468;5.814;2022-08-19T04:01:16;101029.78;;;17.05;100.00
60244;BME280;46106;51.468;5.814;2022-08-19T04:03:44;101031.34;;;17.08;100.00
60244;BME280;46106;51.468;5.814;2022-08-19T04:08:50;101033.72;;;17.03;100.00
60244;BME280;46106;51.468;5.814;2022-08-19T04:11:18;101025.19;;;16.96;100.00
60244;BME280;46106;51.468;5.814;2022-08-19T04:13:53;101027.25;;;17.12;100.00
60244;BME280;46106;51.468;5.814;2022-08-19T04:16:23;101011.81;;;17.09;100.00
60244;BME280;46106;51.468;5.814;2022-08-19T04:18:50;101010.75;;;17.02;100.00
60244;BME280;46106;51.468;5.814;2022-08-19T04:21:26;101012.97;;;16.99;100.00
60244;BME280;46106;51.468;5.814;2022-08-19T04:23:53;101004.31;;;17.02;100.00
60244;BME280;46106;51.468;5.814;2022-08-19T04:26:28;101008.91;;;16.93;100.00
60244;BME280;46106;51.468;5.814;2022-08-19T04:29:01;101006.16;;;16.93;100.00
60244;BME280;46106;51.468;5.814;2022-08-19T04:31:30;101008.97;;;16.83;100.00
60244;BME280;46106;51.468;5.814;2022-08-19T04:33:59;100998.69;;;16.76;100.00
60244;BME280;46106;51.468;5.814;2022-08-19T04:36:29;101013.78;;;16.81;100.00
60244;BME280;46106;51.468;5.814;2022-08-19T04:38:58;101011.44;;;16.86;100.00
60244;BME280;46106;51.468;5.814;2022-08-19T04:41:26;101005.97;;;16.77;100.00
60244;BME280;46106;51.468;5.814;2022-08-19T04:44:12;100999.59;;;16.76;100.00
60244;BME280;46106;51.468;5.814;2022-08-19T04:46:38;101010.44;;;16.87;100.00
60244;BME280;46106;51.468;5.814;2022-08-19T04:49:06;101004.97;;;16.96;100.00
60244;BME280;46106;51.468;5.814;2022-08-19T04:51:33;101010.44;;;16.87;100.00
60244;BME280;46106;51.468;5.814;2022-08-19T04:54:00;101009.59;;;16.77;100.00
60244;BME280;46106;51.468;5.814;2022-08-19T04:56:27;101012.94;;;16.81;100.00
60244;BME280;46106;51.468;5.814;2022-08-19T04:58:54;101010.00;;;16.82;100.00
60244;BME280;46106;51.468;5.814;2022-08-19T05:01:23;101013.28;;;16.96;100.00
60244;BME280;46106;51.468;5.814;2022-08-19T05:03:49;101017.69;;;16.88;100.00
60244;BME280;46106;51.468;5.814;2022-08-19T05:06:17;101027.72;;;16.89;100.00
60244;BME280;46106;51.468;5.814;2022-08-19T05:08:43;101030.34;;;16.91;100.00
60244;BME280;46106;51.468;5.814;2022-08-19T05:11:15;101030.56;;;16.98;100.00
60244;BME280;46106;51.468;5.814;2022-08-19T05:13:44;101034.66;;;17.12;100.00
60244;BME280;46106;51.468;5.814;2022-08-19T05:16:11;101036.09;;;17.16;100.00
60244;BME280;46106;51.468;5.814;2022-08-19T05:18:38;101032.94;;;17.11;100.00
60244;BME280;46106;51.468;5.814;2022-08-19T05:21:22;101040.63;;;16.99;100.00
60244;BME280;46106;51.468;5.814;2022-08-19T05:24:07;101042.41;;;16.90;100.00
60244;BME280;46106;51.468;5.814;2022-08-19T05:26:39;101040.69;;;16.89;100.00
60244;BME280;46106;51.468;5.814;2022-08-19T05:29:05;101043.03;;;17.02;100.00
60244;BME280;46106;51.468;5.814;2022-08-19T05:31:34;101044.72;;;17.13;100.00
60244;BME280;46106;51.468;5.814;2022-08-19T05:34:02;101055.06;;;17.11;100.00
60244;BME280;46106;51.468;5.814;2022-08-19T05:36:34;101057.38;;;17.15;100.00
60244;BME280;46106;51.468;5.814;2022-08-19T05:39:05;101058.44;;;17.40;100.00
60244;BME280;46106;51.468;5.814;2022-08-19T05:41:31;101041.56;;;17.52;100.00
60244;BME280;46106;51.468;5.814;2022-08-19T05:44:04;101054.34;;;17.53;100.00
60244;BME280;46106;51.468;5.814;2022-08-19T05:46:36;101062.66;;;17.53;100.00
60244;BME280;46106;51.468;5.814;2022-08-19T05:49:05;101058.31;;;17.50;100.00
60244;BME280;46106;51.468;5.814;2022-08-19T05:51:36;101056.75;;;17.74;100.00
60244;BME280;46106;51.468;5.814;2022-08-19T05:54:05;101052.84;;;17.85;100.00
60244;BME280;46106;51.468;5.814;2022-08-19T05:56:36;101052.78;;;17.76;100.00
60244;BME280;46106;51.468;5.814;2022-08-19T05:59:05;101051.09;;;17.83;100.00
60244;BME280;46106;51.468;5.814;2022-08-19T06:01:36;101047.69;;;17.90;100.00
60244;BME280;46106;51.468;5.814;2022-08-19T06:04:04;101041.13;;;17.91;100.00
60244;BME280;46106;51.468;5.814;2022-08-19T06:06:35;101058.25;;;18.21;100.00
60244;BME280;46106;51.468;5.814;2022-08-19T06:09:02;101055.56;;;18.45;100.00
60244;BME280;46106;51.468;5.814;2022-08-19T06:11:44;101059.06;;;18.64;100.00
60244;BME280;46106;51.468;5.814;2022-08-19T06:14:15;101060.63;;;18.50;100.00
60244;BME280;46106;51.468;5.814;2022-08-19T06:16:43;101057.50;;;18.53;100.00
60244;BME280;46106;51.468;5.814;2022-08-19T06:19:12;101060.78;;;18.48;100.00
60244;BME280;46106;51.468;5.814;2022-08-19T06:21:42;101066.84;;;18.52;100.00
60244;BME280;46106;51.468;5.814;2022-08-19T06:24:13;101063.59;;;18.65;100.00
60244;BME280;46106;51.468;5.814;2022-08-19T06:26:41;101067.47;;;18.37;100.00
60244;BME280;46106;51.468;5.814;2022-08-19T06:29:09;101063.94;;;18.62;100.00
60244;BME280;46106;51.468;5.814;2022-08-19T06:31:39;101066.69;;;18.53;100.00
60244;BME280;46106;51.468;5.814;2022-08-19T06:34:05;101064.81;;;18.70;100.00
60244;BME280;46106;51.468;5.814;2022-08-19T06:36:40;101064.47;;;18.73;100.00
60244;BME280;46106;51.468;5.814;2022-08-19T06:39:15;101069.56;;;18.86;100.00
60244;BME280;46106;51.468;5.814;2022-08-19T06:41:44;101063.25;;;18.68;100.00
60244;BME280;46106;51.468;5.814;2022-08-19T06:44:10;101066.66;;;19.04;100.00
60244;BME280;46106;51.468;5.814;2022-08-19T06:46:37;101062.28;;;18.85;100.00
60244;BME280;46106;51.468;5.814;2022-08-19T06:49:06;101063.69;;;19.06;100.00
60244;BME280;46106;51.468;5.814;2022-08-19T06:51:37;101072.53;;;19.18;100.00
60244;BME280;46106;51.468;5.814;2022-08-19T06:54:06;101071.00;;;19.23;100.00
60244;BME280;46106;51.468;5.814;2022-08-19T06:56:36;101069.78;;;19.42;100.00
60244;BME280;46106;51.468;5.814;2022-08-19T06:59:09;101073.22;;;19.61;100.00
60244;BME280;46106;51.468;5.814;2022-08-19T07:01:42;101071.31;;;19.70;100.00
60244;BME280;46106;51.468;5.814;2022-08-19T07:04:13;101075.13;;;19.77;100.00
60244;BME280;46106;51.468;5.814;2022-08-19T07:06:39;101075.28;;;19.92;100.00
60244;BME280;46106;51.468;5.814;2022-08-19T07:09:05;101068.63;;;20.09;100.00
60244;BME280;46106;51.468;5.814;2022-08-19T07:11:34;101076.06;;;20.25;100.00
60244;BME280;46106;51.468;5.814;2022-08-19T07:14:02;101087.91;;;20.11;100.00
60244;BME280;46106;51.468;5.814;2022-08-19T07:16:34;101080.47;;;20.03;100.00
60244;BME280;46106;51.468;5.814;2022-08-19T07:19:00;101080.50;;;19.87;100.00
60244;BME280;46106;51.468;5.814;2022-08-19T07:21:27;101088.56;;;20.21;100.00
60244;BME280;46106;51.468;5.814;2022-08-19T07:23:53;101101.44;;;20.70;100.00
60244;BME280;46106;51.468;5.814;2022-08-19T07:26:25;101089.97;;;20.25;100.00
60244;BME280;46106;51.468;5.814;2022-08-19T07:28:53;101086.66;;;20.22;100.00
60244;BME280;46106;51.468;5.814;2022-08-19T07:31:22;101095.06;;;20.92;100.00
60244;BME280;46106;51.468;5.814;2022-08-19T07:33:53;101089.13;;;21.19;100.00
60244;BME280;46106;51.468;5.814;2022-08-19T07:36:23;101088.97;;;20.89;100.00
60244;BME280;46106;51.468;5.814;2022-08-19T07:38:50;101099.94;;;21.37;100.00
60244;BME280;46106;51.468;5.814;2022-08-19T07:41:20;101093.06;;;21.01;100.00
60244;BME280;46106;51.468;5.814;2022-08-19T07:43:52;101102.59;;;21.07;100.00
60244;BME280;46106;51.468;5.814;2022-08-19T07:46:18;101097.16;;;21.60;100.00
60244;BME280;46106;51.468;5.814;2022-08-19T07:48:49;101090.97;;;21.26;100.00
60244;BME280;46106;51.468;5.814;2022-08-19T07:51:18;101089.84;;;21.36;100.00
60244;BME280;46106;51.468;5.814;2022-08-19T07:53:44;101100.06;;;21.66;100.00
60244;BME280;46106;51.468;5.814;2022-08-19T07:56:12;101109.31;;;21.82;100.00
60244;BME280;46106;51.468;5.814;2022-08-19T07:58:41;101104.56;;;22.06;100.00
60244;BME280;46106;51.468;5.814;2022-08-19T08:01:15;101109.03;;;21.77;100.00
60244;BME280;46106;51.468;5.814;2022-08-19T08:03:44;101104.28;;;21.77;100.00
60244;BME280;46106;51.468;5.814;2022-08-19T08:06:29;101100.72;;;22.36;100.00
60244;BME280;46106;51.468;5.814;2022-08-19T08:09:15;101094.53;;;21.96;100.00
60244;BME280;46106;51.468;5.814;2022-08-19T08:11:56;101106.13;;;23.26;100.00
60244;BME280;46106;51.468;5.814;2022-08-19T08:14:31;101116.50;;;22.29;100.00
60244;BME280;46106;51.468;5.814;2022-08-19T08:17:00;101128.69;;;22.73;100.00
60244;BME280;46106;51.468;5.814;2022-08-19T08:19:27;101123.19;;;22.80;100.00
60244;BME280;46106;51.468;5.814;2022-08-19T08:21:54;101127.09;;;23.37;100.00
60244;BME280;46106;51.468;5.814;2022-08-19T08:24:20;101128.59;;;23.82;100.00
60244;BME280;46106;51.468;5.814;2022-08-19T08:26:46;101130.03;;;24.00;100.00
60244;BME280;46106;51.468;5.814;2022-08-19T08:29:14;101135.06;;;23.18;100.00
60244;BME280;46106;51.468;5.814;2022-08-19T08:31:42;101134.09;;;23.76;100.00
60244;BME280;46106;51.468;5.814;2022-08-19T08:34:10;101145.00;;;24.14;100.00
60244;BME280;46106;51.468;5.814;2022-08-19T08:36:42;101146.59;;;24.30;100.00
60244;BME280;46106;51.468;5.814;2022-08-19T08:39:13;101142.22;;;24.49;100.00
60244;BME280;46106;51.468;5.814;2022-08-19T08:44:20;101137.34;;;24.64;100.00
60244;BME280;46106;51.468;5.814;2022-08-19T08:46:49;101140.06;;;24.51;100.00
60244;BME280;46106;51.468;5.814;2022-08-19T08:51:46;101137.19;;;24.37;100.00
60244;BME280;46106;51.468;5.814;2022-08-19T08:54:19;101130.25;;;25.23;100.00
60244;BME280;46106;51.468;5.814;2022-08-19T08:56:47;101130.94;;;24.35;100.00
60244;BME280;46106;51.468;5.814;2022-08-19T08:59:26;101130.13;;;24.83;100.00
60244;BME280;46106;51.468;5.814;2022-08-19T09:01:53;101129.72;;;24.51;100.00
60244;BME280;46106;51.468;5.814;2022-08-19T09:04:19;101131.69;;;24.99;100.00
60244;BME280;46106;51.468;5.814;2022-08-19T09:06:55;101132.19;;;25.16;100.00
60244;BME280;46106;51.468;5.814;2022-08-19T09:12:22;101130.13;;;26.12;100.00
60244;BME280;46106;51.468;5.814;2022-08-19T09:15:03;101127.97;;;25.40;100.00
60244;BME280;46106;51.468;5.814;2022-08-19T09:17:31;101128.84;;;25.88;100.00
60244;BME280;46106;51.468;5.814;2022-08-19T09:20:12;101133.13;;;25.37;100.00
60244;BME280;46106;51.468;5.814;2022-08-19T09:22:41;101127.13;;;25.86;100.00
60244;BME280;46106;51.468;5.814;2022-08-19T09:25:12;101122.34;;;25.27;100.00
60244;BME280;46106;51.468;5.814;2022-08-19T09:27:41;101123.69;;;24.89;100.00
60244;BME280;46106;51.468;5.814;2022-08-19T09:30:13;101129.47;;;26.30;100.00
60244;BME280;46106;51.468;5.814;2022-08-19T09:32:40;101109.34;;;25.19;100.00
60244;BME280;46106;51.468;5.814;2022-08-19T09:35:08;101123.66;;;26.18;100.00
60244;BME280;46106;51.468;5.814;2022-08-19T09:37:34;101129.50;;;26.16;100.00
60244;BME280;46106;51.468;5.814;2022-08-19T09:40:04;101137.69;;;26.18;100.00
60244;BME280;46106;51.468;5.814;2022-08-19T09:42:33;101134.69;;;26.13;100.00
60244;BME280;46106;51.468;5.814;2022-08-19T09:44:59;101137.66;;;26.31;100.00
60244;BME280;46106;51.468;5.814;2022-08-19T09:47:25;101127.53;;;26.23;100.00
60244;BME280;46106;51.468;5.814;2022-08-19T09:49:52;101130.91;;;26.52;99.58
60244;BME280;46106;51.468;5.814;2022-08-19T09:52:18;101126.59;;;26.56;97.32
60244;BME280;46106;51.468;5.814;2022-08-19T09:54:43;101127.53;;;25.77;100.00
60244;BME280;46106;51.468;5.814;2022-08-19T09:57:10;101132.53;;;25.81;100.00
60244;BME280;46106;51.468;5.814;2022-08-19T09:59:39;101132.94;;;26.05;97.14
60244;BME280;46106;51.468;5.814;2022-08-19T10:02:05;101135.03;;;26.43;96.70
60244;BME280;46106;51.468;5.814;2022-08-19T10:04:31;101143.56;;;26.88;96.01
60244;BME280;46106;51.468;5.814;2022-08-19T10:07:15;101136.34;;;26.40;94.13
60244;BME280;46106;51.468;5.814;2022-08-19T10:09:40;101135.31;;;26.15;98.98
60244;BME280;46106;51.468;5.814;2022-08-19T10:12:08;101129.84;;;26.67;95.89
60244;BME280;46106;51.468;5.814;2022-08-19T10:14:35;101135.59;;;26.85;95.29
60244;BME280;46106;51.468;5.814;2022-08-19T10:17:02;101136.56;;;26.46;98.13
60244;BME280;46106;51.468;5.814;2022-08-19T10:19:28;101140.41;;;26.51;98.29
60244;BME280;46106;51.468;5.814;2022-08-19T10:22:02;101129.25;;;26.96;95.00
60244;BME280;46106;51.468;5.814;2022-08-19T10:24:29;101134.66;;;27.43;91.19
60244;BME280;46106;51.468;5.814;2022-08-19T10:26:56;101134.38;;;27.13;92.07
60244;BME280;46106;51.468;5.814;2022-08-19T10:29:22;101140.06;;;26.21;96.46
60244;BME280;46106;51.468;5.814;2022-08-19T10:31:48;101135.97;;;26.95;94.06
60244;BME280;46106;51.468;5.814;2022-08-19T10:34:13;101141.75;;;26.42;96.57
60244;BME280;46106;51.468;5.814;2022-08-19T10:36:39;101138.78;;;26.03;99.22
60244;BME280;46106;51.468;5.814;2022-08-19T10:39:08;101121.22;;;25.28;100.00
60244;BME280;46106;51.468;5.814;2022-08-19T10:41:37;101138.53;;;26.38;99.63
60244;BME280;46106;51.468;5.814;2022-08-19T10:44:07;101128.44;;;26.11;99.48
60244;BME280;46106;51.468;5.814;2022-08-19T10:46:40;101128.50;;;25.09;100.00
60244;BME280;46106;51.468;5.814;2022-08-19T10:49:10;101126.25;;;24.84;100.00
60244;BME280;46106;51.468;5.814;2022-08-19T10:51:38;101133.56;;;25.47;100.00
60244;BME280;46106;51.468;5.814;2022-08-19T10:54:22;101131.78;;;26.66;100.00
60244;BME280;46106;51.468;5.814;2022-08-19T10:56:47;101135.16;;;26.88;100.00
60244;BME280;46106;51.468;5.814;2022-08-19T10:59:23;101133.31;;;26.49;100.00
60244;BME280;46106;51.468;5.814;2022-08-19T11:01:51;101132.81;;;27.24;100.00
60244;BME280;46106;51.468;5.814;2022-08-19T11:04:18;101122.53;;;27.04;100.00
60244;BME280;46106;51.468;5.814;2022-08-19T11:06:48;101120.16;;;27.01;100.00
60244;BME280;46106;51.468;5.814;2022-08-19T11:09:15;101121.47;;;26.40;100.00
60244;BME280;46106;51.468;5.814;2022-08-19T11:11:42;101133.50;;;26.54;100.00
60244;BME280;46106;51.468;5.814;2022-08-19T11:14:12;101132.69;;;26.27;100.00
60244;BME280;46106;51.468;5.814;2022-08-19T11:16:40;101144.16;;;26.25;100.00
60244;BME280;46106;51.468;5.814;2022-08-19T11:19:10;101145.91;;;26.19;100.00
60244;BME280;46106;51.468;5.814;2022-08-19T11:21:42;101144.63;;;26.22;100.00
60244;BME280;46106;51.468;5.814;2022-08-19T11:24:14;101137.84;;;26.43;99.68
60244;BME280;46106;51.468;5.814;2022-08-19T11:26:42;101138.69;;;26.57;93.48
60244;BME280;46106;51.468;5.814;2022-08-19T11:29:12;101143.72;;;26.28;94.54
60244;BME280;46106;51.468;5.814;2022-08-19T11:31:40;101130.13;;;25.78;94.68
60244;BME280;46106;51.468;5.814;2022-08-19T11:34:09;101127.97;;;25.94;97.60
60244;BME280;46106;51.468;5.814;2022-08-19T11:36:45;101123.63;;;26.31;96.84
60244;BME280;46106;51.468;5.814;2022-08-19T11:39:13;101125.50;;;26.64;96.28
60244;BME280;46106;51.468;5.814;2022-08-19T11:41:42;101127.66;;;26.69;96.84
60244;BME280;46106;51.468;5.814;2022-08-19T11:44:08;101124.78;;;26.82;95.46
60244;BME280;46106;51.468;5.814;2022-08-19T11:46:37;101120.00;;;26.11;96.54
60244;BME280;46106;51.468;5.814;2022-08-19T11:49:04;101110.72;;;25.83;99.26
60244;BME280;46106;51.468;5.814;2022-08-19T11:51:37;101110.69;;;25.90;100.00
60244;BME280;46106;51.468;5.814;2022-08-19T11:54:05;101115.91;;;26.07;100.00
60244;BME280;46106;51.468;5.814;2022-08-19T11:56:31;101104.25;;;25.83;100.00
60244;BME280;46106;51.468;5.814;2022-08-19T11:58:57;101108.56;;;25.72;100.00
60244;BME280;46106;51.468;5.814;2022-08-19T12:01:24;101103.34;;;25.89;100.00
60244;BME280;46106;51.468;5.814;2022-08-19T12:03:52;101100.59;;;26.09;100.00
60244;BME280;46106;51.468;5.814;2022-08-19T12:06:23;101112.88;;;26.15;98.21
60244;BME280;46106;51.468;5.814;2022-08-19T12:08:51;101116.31;;;26.10;97.16
60244;BME280;46106;51.468;5.814;2022-08-19T12:11:17;101115.13;;;26.58;95.34
60244;BME280;46106;51.468;5.814;2022-08-19T12:13:43;101119.94;;;26.44;95.84
60244;BME280;46106;51.468;5.814;2022-08-19T12:16:16;101112.16;;;26.39;95.58
60244;BME280;46106;51.468;5.814;2022-08-19T12:18:43;101110.25;;;26.27;97.88
60244;BME280;46106;51.468;5.814;2022-08-19T12:21:14;101112.84;;;26.21;96.37
60244;BME280;46106;51.468;5.814;2022-08-19T12:23:43;101105.28;;;26.29;97.49
60244;BME280;46106;51.468;5.814;2022-08-19T12:26:11;101109.56;;;26.38;97.78
60244;BME280;46106;51.468;5.814;2022-08-19T12:28:42;101108.44;;;26.52;97.07
60244;BME280;46106;51.468;5.814;2022-08-19T12:31:09;101111.25;;;26.66;97.80
60244;BME280;46106;51.468;5.814;2022-08-19T12:33:43;101109.59;;;26.25;95.36
60244;BME280;46106;51.468;5.814;2022-08-19T12:36:13;101103.72;;;26.46;97.36
60244;BME280;46106;51.468;5.814;2022-08-19T12:38:39;101110.66;;;26.44;96.21
60244;BME280;46106;51.468;5.814;2022-08-19T12:41:06;101103.31;;;26.36;94.28
60244;BME280;46106;51.468;5.814;2022-08-19T12:43:37;101100.50;;;26.42;96.96
60244;BME280;46106;51.468;5.814;2022-08-19T12:46:05;101105.88;;;26.44;96.35
60244;BME280;46106;51.468;5.814;2022-08-19T12:48:32;101100.72;;;26.41;98.46
60244;BME280;46106;51.468;5.814;2022-08-19T12:51:14;101107.91;;;26.03;98.01
60244;BME280;46106;51.468;5.814;2022-08-19T12:53:41;101100.56;;;25.82;99.98
60244;BME280;46106;51.468;5.814;2022-08-19T12:56:08;101097.53;;;25.71;100.00
60244;BME280;46106;51.468;5.814;2022-08-19T12:58:33;101091.75;;;26.06;100.00
60244;BME280;46106;51.468;5.814;2022-08-19T13:01:16;101095.84;;;26.03;100.00